Time;durP1;ratioP1;P1;durP2;ratioP2;P2;SDS_P1;SDS_P2;PMS_P1;PMS_P2;Temp;Humidity;BMP_temperature;BMP_pressure;BME280_temperature;BME280_humidity;BME280_pressure;Samples;Min_cycle;Max_cycle;Signal;HPM_P1;HPM_P2
2021/07/27 00:04:46;;;;;;;8.35;2.97;;;;;;;18.47;58.74;99542.28;10366484;28;20050;-61
2021/07/27 00:09:48;;;;;;;6.45;3.08;;;;;;;18.26;59.06;99549.69;10366123;28;20125;-61
2021/07/27 00:14:50;;;;;;;6.35;3.30;;;;;;;18.23;59.21;99557.91;10366322;28;20582;-61
2021/07/27 00:19:52;;;;;;;6.93;3.20;;;;;;;17.92;59.81;99548.59;10365536;28;20069;-60
2021/07/27 00:24:54;;;;;;;5.60;3.00;;;;;;;17.98;59.76;99548.84;10363974;28;20128;-61
2021/07/27 00:29:56;;;;;;;7.97;3.40;;;;;;;18.04;59.60;99558.00;10363270;28;20493;-61
2021/07/27 00:34:57;;;;;;;6.13;3.55;;;;;;;18.07;59.76;99553.25;10366013;28;20311;-60
2021/07/27 00:40:00;;;;;;;8.93;3.40;;;;;;;18.09;59.66;99561.03;10365229;28;20189;-61
2021/07/27 00:45:02;;;;;;;4.53;3.00;;;;;;;18.04;59.68;99568.56;10379859;28;20129;-61
2021/07/27 00:50:07;;;;;;;9.88;3.30;;;;;;;17.99;60.03;99579.63;10363104;28;20046;-61
2021/07/27 00:55:09;;;;;;;7.40;3.10;;;;;;;17.87;60.17;99590.53;10363152;28;20161;-61
2021/07/27 01:00:13;;;;;;;6.90;3.50;;;;;;;17.76;60.55;99576.53;10364403;28;20141;-60
2021/07/27 01:05:16;;;;;;;5.30;3.70;;;;;;;17.60;60.78;99592.19;10363639;28;20125;-61
2021/07/27 01:10:17;;;;;;;6.68;3.70;;;;;;;17.46;61.42;99592.63;10364552;28;20100;-61
2021/07/27 01:15:19;;;;;;;5.30;3.30;;;;;;;17.43;61.52;99582.34;10363698;28;20149;-60
2021/07/27 01:46:38;;;;;;;5.25;3.50;;;;;;;17.68;60.83;99578.22;10362827;28;20045;-61
2021/07/27 01:51:44;;;;;;;7.13;3.97;;;;;;;17.75;60.55;99568.75;10363129;28;20049;-60
2021/07/27 01:56:47;;;;;;;5.45;3.63;;;;;;;17.79;60.48;99570.94;10362457;28;20049;-61
2021/07/27 02:01:49;;;;;;;5.35;3.50;;;;;;;17.80;60.39;99562.03;10364805;28;20073;-61
2021/07/27 02:06:51;;;;;;;5.53;3.70;;;;;;;17.80;60.27;99550.59;10368371;28;20061;-61
2021/07/27 02:11:58;;;;;;;7.68;3.30;;;;;;;17.64;60.75;99551.25;10370568;28;20121;-60
2021/07/27 02:17:04;;;;;;;7.05;3.60;;;;;;;17.63;60.98;99554.00;10369987;28;20132;-60
2021/07/27 02:22:06;;;;;;;8.27;4.03;;;;;;;17.61;60.81;99551.50;10370294;28;20145;-61
2021/07/27 02:27:09;;;;;;;5.63;3.47;;;;;;;17.48;61.15;99560.75;10369587;28;20133;-61
2021/07/27 02:32:11;;;;;;;6.18;3.72;;;;;;;17.36;61.39;99560.13;10369251;28;20492;-60
2021/07/27 02:37:14;;;;;;;5.25;3.88;;;;;;;17.25;61.35;99554.94;10368532;28;20129;-60
2021/07/27 02:42:16;;;;;;;7.47;3.83;;;;;;;17.30;61.76;99555.34;10369533;28;20081;-60
2021/07/27 02:47:18;;;;;;;8.77;3.95;;;;;;;17.24;61.44;99553.25;10383929;28;20121;-60
2021/07/27 02:52:19;;;;;;;6.65;3.65;;;;;;;17.12;61.91;99556.25;10372386;28;20056;-60
2021/07/27 02:57:21;;;;;;;7.78;3.72;;;;;;;17.10;61.97;99556.34;10376652;28;20510;-60
2021/07/27 03:02:26;;;;;;;7.65;3.90;;;;;;;17.08;61.96;99553.03;10375849;28;20426;-61
2021/07/27 03:12:46;;;;;;;7.25;4.25;;;;;;;16.57;63.01;99563.91;10368846;28;20129;-60
2021/07/27 03:17:51;;;;;;;6.20;4.68;;;;;;;16.40;63.45;99569.00;10369141;28;20136;-60
2021/07/27 03:22:57;;;;;;;9.38;4.80;;;;;;;16.19;64.03;99577.84;10369697;28;20129;-60
2021/07/27 03:27:58;;;;;;;8.18;4.63;;;;;;;15.99;64.38;99570.88;10368609;28;20048;-60
2021/07/27 03:33:00;;;;;;;6.95;4.40;;;;;;;15.91;64.94;99578.63;10368029;28;20141;-60
2021/07/27 03:38:05;;;;;;;6.38;4.70;;;;;;;16.18;64.65;99583.28;10368162;28;20081;-60
2021/07/27 03:43:07;;;;;;;7.60;4.70;;;;;;;16.27;64.05;99578.97;10368586;28;20038;-60
2021/07/27 03:48:08;;;;;;;6.40;4.53;;;;;;;16.32;64.17;99579.41;10367661;28;20073;-60
2021/07/27 03:53:17;;;;;;;7.85;4.43;;;;;;;16.30;64.35;99587.47;10366821;28;20050;-60
2021/07/27 03:58:19;;;;;;;9.10;4.45;;;;;;;16.33;63.72;99592.47;10383273;28;20060;-60
2021/07/27 04:03:21;;;;;;;7.15;4.53;;;;;;;16.43;63.71;99598.63;10367730;28;20064;-60
2021/07/27 04:08:23;;;;;;;7.38;4.70;;;;;;;16.41;63.85;99610.25;10366642;28;20080;-60
2021/07/27 04:13:25;;;;;;;7.40;4.72;;;;;;;16.30;64.54;99589.28;10367325;28;20132;-60
2021/07/27 04:18:27;;;;;;;9.38;5.20;;;;;;;16.31;63.60;99583.00;10367169;28;20129;-60
2021/07/27 04:23:29;;;;;;;11.73;6.40;;;;;;;16.01;64.38;99590.03;10366497;28;20050;-60
2021/07/27 04:28:30;;;;;;;10.18;4.60;;;;;;;15.99;65.03;99588.50;10365398;28;20554;-60
2021/07/27 04:33:32;;;;;;;9.57;4.63;;;;;;;16.36;64.39;99592.19;10381844;28;20133;-60
2021/07/27 04:38:34;;;;;;;7.47;4.35;;;;;;;17.92;61.28;99590.91;10366232;28;20049;-60
2021/07/27 04:43:36;;;;;;;7.75;3.67;;;;;;;20.54;54.70;99585.31;10365325;28;20074;-60
2021/07/27 04:48:39;;;;;;;8.57;4.35;;;;;;;22.48;49.96;99585.84;10366412;28;20125;-60
2021/07/27 04:53:41;;;;;;;5.90;3.67;;;;;;;24.02;46.41;99573.63;10365752;28;20065;-61
2021/07/27 04:58:43;;;;;;;8.68;3.80;;;;;;;25.31;43.39;99566.34;10364465;28;20230;-61
2021/07/27 05:03:45;;;;;;;4.90;3.45;;;;;;;26.50;40.86;99568.69;10364244;28;20073;-61
2021/07/27 05:08:46;;;;;;;5.15;3.10;;;;;;;27.45;39.05;99578.09;10364790;28;20138;-61
2021/07/27 05:13:48;;;;;;;7.78;3.70;;;;;;;26.93;39.24;99569.19;10363072;28;20482;-61
2021/07/27 05:18:50;;;;;;;4.32;3.53;;;;;;;24.84;42.22;99564.31;10364969;28;20100;-61
2021/07/27 05:23:52;;;;;;;6.40;3.67;;;;;;;23.89;44.59;99568.13;10364394;28;20125;-61
2021/07/27 05:28:53;;;;;;;6.20;3.80;;;;;;;23.62;44.83;99566.09;10349485;28;20589;-61
2021/07/27 05:33:55;;;;;;;7.18;3.92;;;;;;;22.48;47.61;99560.03;10358895;28;20056;-61
2021/07/27 05:39:00;;;;;;;8.32;4.30;;;;;;;21.71;49.40;99566.22;10359832;28;20108;-61
2021/07/27 05:44:02;;;;;;;7.57;4.80;;;;;;;21.07;51.38;99572.44;10361570;28;20069;-61
2021/07/27 05:49:08;;;;;;;8.98;4.80;;;;;;;20.48;52.78;99585.97;10359628;28;20493;-60
2021/07/27 05:54:10;;;;;;;11.35;4.68;;;;;;;20.10;53.88;99587.38;10359958;28;20060;-61
2021/07/27 05:59:12;;;;;;;8.23;4.53;;;;;;;20.02;54.50;99597.97;10360384;28;20057;-61
2021/07/27 06:04:14;;;;;;;8.40;4.10;;;;;;;20.12;54.80;99605.78;10360976;28;20227;-61
2021/07/27 06:09:16;;;;;;;10.02;4.32;;;;;;;20.42;54.19;99594.59;10359430;28;20052;-61
2021/07/27 06:14:21;;;;;;;8.95;4.10;;;;;;;20.81;53.52;99593.03;10354729;28;20108;-60
2021/07/27 06:19:25;;;;;;;8.38;4.28;;;;;;;20.97;53.71;99589.53;10361101;28;20057;-61
2021/07/27 06:24:27;;;;;;;9.77;3.95;;;;;;;20.73;53.99;99594.84;10359260;28;20172;-61
2021/07/27 06:29:29;;;;;;;6.60;4.05;;;;;;;21.11;53.33;99604.03;10349918;28;20138;-60
2021/07/27 06:34:31;;;;;;;8.05;4.07;;;;;;;21.02;53.50;99609.34;10365763;28;20046;-61
2021/07/27 06:39:32;;;;;;;6.50;4.00;;;;;;;20.73;53.61;99606.31;10367338;28;20052;-61
2021/07/27 06:44:34;;;;;;;6.60;3.80;;;;;;;20.62;54.43;99613.78;10368013;28;20049;-61
2021/07/27 06:49:36;;;;;;;6.47;3.78;;;;;;;20.93;54.09;99612.16;10370226;28;20056;-61
2021/07/27 06:54:37;;;;;;;8.07;4.38;;;;;;;21.16;52.66;99607.00;10369032;28;20126;-61
2021/07/27 06:59:39;;;;;;;5.45;3.60;;;;;;;21.48;52.36;99602.50;10371516;28;20561;-61
2021/07/27 07:04:42;;;;;;;6.50;3.78;;;;;;;21.49;52.53;99609.50;10350799;28;20058;-61
2021/07/27 07:09:45;;;;;;;7.57;3.75;;;;;;;21.68;51.51;99608.31;10356063;28;20208;-61
2021/07/27 07:14:47;;;;;;;5.47;3.67;;;;;;;21.85;50.83;99600.09;10367091;28;20057;-61
2021/07/27 07:19:51;;;;;;;7.50;4.30;;;;;;;21.99;50.44;99617.19;10354514;28;20050;-61
2021/07/27 07:24:52;;;;;;;5.25;3.67;;;;;;;22.12;49.53;99614.00;10345036;28;20078;-61
2021/07/27 07:29:55;;;;;;;5.75;3.78;;;;;;;21.95;49.49;99610.53;10360602;28;20104;-61
2021/07/27 07:34:56;;;;;;;6.53;4.13;;;;;;;21.64;50.34;99607.00;10368810;28;20466;-61
2021/07/27 07:39:58;;;;;;;6.78;3.80;;;;;;;21.69;50.43;99604.63;10368184;28;20138;-61
2021/07/27 07:45:00;;;;;;;6.70;4.00;;;;;;;;;;10368877;28;20056;-61
2021/07/27 07:50:01;;;;;;;4.53;3.70;;;;;;;21.67;51.23;99603.97;10367317;28;20050;-60
2021/07/27 07:55:06;;;;;;;8.73;4.18;;;;;;;22.22;50.08;99612.81;10382842;28;20494;-61
2021/07/27 08:00:08;;;;;;;6.22;3.90;;;;;;;22.32;49.35;99600.09;10368188;28;20061;-61
2021/07/27 08:05:10;;;;;;;10.82;4.00;;;;;;;22.87;48.47;99615.09;10367388;28;20125;-61
2021/07/27 08:10:13;;;;;;;6.60;3.70;;;;;;;23.24;47.21;99610.66;10367277;28;20506;-61
2021/07/27 08:15:15;;;;;;;6.40;3.67;;;;;;;23.59;47.17;99608.34;10366676;28;20054;-60
2021/07/27 08:20:17;;;;;;;6.03;3.60;;;;;;;24.73;44.29;99596.09;10366086;28;20082;-61
2021/07/27 08:25:22;;;;;;;6.57;3.45;;;;;;;24.63;43.92;99599.06;10396624;28;20057;-61
2021/07/27 08:30:25;;;;;;;5.90;4.10;;;;;;;24.83;43.97;99584.09;10341073;28;20054;-61
2021/07/27 08:35:27;;;;;;;6.15;3.60;;;;;;;24.79;44.44;99592.66;10349607;28;20053;-61
2021/07/27 08:40:34;;;;;;;8.95;3.67;;;;;;;25.30;43.01;99588.81;10340426;28;20140;-61
2021/07/27 08:45:36;;;;;;;7.60;3.45;;;;;;;25.94;42.08;99596.69;10359763;28;20125;-60
2021/07/27 08:50:54;;;;;;;8.15;4.30;;;;;;;26.24;40.69;99606.13;10339773;28;20129;-60
2021/07/27 08:55:59;;;;;;;5.18;4.00;;;;;;;26.27;41.04;99601.19;10356812;28;20125;-60
2021/07/27 09:01:01;;;;;;;5.72;3.85;;;;;;;26.42;40.70;99599.19;10350774;28;20129;-60
2021/07/27 09:06:04;;;;;;;6.78;4.38;;;;;;;26.62;39.80;99602.78;10379797;28;20042;-60
2021/07/27 09:11:09;;;;;;;4.95;4.03;;;;;;;26.24;40.09;99598.91;10350630;28;20470;-60
2021/07/27 09:16:16;;;;;;;5.18;4.07;;;;;;;25.92;40.71;99603.06;10371693;28;20050;-60
2021/07/27 09:21:24;;;;;;;6.82;4.28;;;;;;;26.02;41.13;99607.28;10392597;28;20053;-60
2021/07/27 09:26:25;;;;;;;8.18;5.30;;;;;;;25.89;40.51;99598.06;10385623;28;20073;-60
2021/07/27 09:31:27;;;;;;;7.15;4.90;;;;;;;25.84;41.02;99584.47;10384774;28;20418;-60
2021/07/27 09:36:29;;;;;;;9.55;5.20;;;;;;;25.35;41.69;99573.00;10388556;28;20056;-60
2021/07/27 09:41:31;;;;;;;7.93;5.13;;;;;;;25.67;41.40;99571.59;10392487;28;20133;-60
2021/07/27 09:46:33;;;;;;;7.60;4.85;;;;;;;25.72;41.47;99578.00;10397462;28;20148;-60
2021/07/27 09:51:35;;;;;;;5.82;5.00;;;;;;;26.02;40.87;99583.16;10368997;28;20128;-60
2021/07/27 09:56:37;;;;;;;10.43;5.20;;;;;;;26.03;40.76;99572.22;10376463;28;20057;-60
2021/07/27 10:01:42;;;;;;;7.93;5.38;;;;;;;26.57;40.12;99567.69;10402307;28;20128;-60
2021/07/27 10:06:48;;;;;;;6.15;5.13;;;;;;;26.80;39.63;99564.63;10403121;28;20072;-60
2021/07/27 10:11:49;;;;;;;7.88;5.10;;;;;;;27.50;37.71;99572.09;10407601;28;20136;-60
2021/07/27 10:17:01;;;;;;;8.60;4.70;;;;;;;26.74;38.84;99568.13;10397967;28;20152;-61
2021/07/27 10:22:04;;;;;;;8.38;4.88;;;;;;;27.04;40.38;99573.94;10401278;28;20482;-60
2021/07/27 10:27:16;;;;;;;6.45;4.70;;;;;;;27.69;37.53;99573.09;10401443;28;20085;-60
2021/07/27 10:32:22;;;;;;;8.27;5.32;;;;;;;27.64;37.66;99572.91;10398124;28;20620;-61
2021/07/27 10:37:23;;;;;;;6.35;4.40;;;;;;;27.38;37.62;99569.22;10398780;28;20041;-60
2021/07/27 10:42:38;;;;;;;6.75;4.93;;;;;;;27.81;36.21;99558.00;10416330;28;20087;-61
2021/07/27 10:47:47;;;;;;;5.50;4.65;;;;;;;27.90;36.63;99554.03;10398332;28;20121;-60
2021/07/27 10:52:49;;;;;;;5.88;4.80;;;;;;;27.86;37.27;99550.97;10397580;28;20195;-60
2021/07/27 10:57:55;;;;;;;7.32;4.88;;;;;;;27.83;36.50;99547.88;10390932;28;20447;-61
2021/07/27 11:02:57;;;;;;;7.10;4.97;;;;;;;27.10;36.92;99549.78;10400331;28;20121;-61
2021/07/27 11:07:59;;;;;;;6.65;5.00;;;;;;;26.97;38.06;99541.75;10402634;28;20050;-60
2021/07/27 11:13:01;;;;;;;11.35;5.13;;;;;;;26.88;37.80;99536.78;10402256;28;20050;-60
2021/07/27 11:18:03;;;;;;;8.40;5.50;;;;;;;26.77;37.66;99540.06;10404253;28;20059;-60
2021/07/27 11:23:11;;;;;;;8.20;5.00;;;;;;;26.54;37.08;99537.75;10402744;28;20477;-60
2021/07/27 11:28:15;;;;;;;8.73;5.35;;;;;;;26.55;39.07;99534.00;10407108;28;20093;-61
2021/07/27 11:33:22;;;;;;;10.50;5.20;;;;;;;26.48;40.00;99527.81;10408416;28;20093;-60
2021/07/27 11:38:25;;;;;;;7.05;5.18;;;;;;;26.59;38.78;99535.28;10401375;28;20145;-61
2021/07/27 11:43:31;;;;;;;8.00;5.30;;;;;;;26.21;39.58;99526.09;10407611;28;20124;-61
2021/07/27 11:48:34;;;;;;;7.57;5.07;;;;;;;26.36;40.15;99518.72;10408471;28;20128;-60
2021/07/27 11:53:39;;;;;;;8.70;5.30;;;;;;;26.95;38.97;99505.41;10394961;28;20052;-61
2021/07/27 11:58:41;;;;;;;6.88;5.07;;;;;;;27.50;37.59;99503.06;10409560;28;20088;-61
2021/07/27 12:03:43;;;;;;;6.55;4.95;;;;;;;27.44;37.67;99509.28;10423867;28;20092;-61
2021/07/27 12:08:45;;;;;;;6.47;4.75;;;;;;;27.06;38.34;99521.69;10406614;28;20107;-61
2021/07/27 12:13:46;;;;;;;8.57;5.43;;;;;;;26.58;41.00;99525.59;10404025;28;20713;-61
2021/07/27 12:18:48;;;;;;;6.90;5.30;;;;;;;25.79;43.38;99495.81;10406208;28;20132;-60
2021/07/27 12:23:50;;;;;;;5.90;4.55;;;;;;;25.40;42.71;99503.66;10418363;28;20165;-60
2021/07/27 12:28:52;;;;;;;8.60;5.30;;;;;;;24.88;45.63;99497.88;10420321;28;20057;-60
2021/07/27 12:33:54;;;;;;;7.78;5.18;;;;;;;24.61;45.53;99490.63;10402982;28;20453;-60
2021/07/27 12:38:56;;;;;;;8.48;5.03;;;;;;;24.23;47.23;99482.03;10401615;28;20912;-60
2021/07/27 12:43:57;;;;;;;5.78;4.57;;;;;;;24.03;48.58;99480.94;10406868;28;20053;-61
2021/07/27 12:48:59;;;;;;;6.55;5.00;;;;;;;24.05;48.68;99481.59;10404745;28;20136;-60
2021/07/27 12:54:02;;;;;;;8.63;6.30;;;;;;;24.17;50.05;99467.59;10405491;28;20136;-60
2021/07/27 12:59:10;;;;;;;7.07;5.70;;;;;;;24.26;49.74;99463.78;10395523;28;20081;-60
2021/07/27 13:04:11;;;;;;;8.05;5.78;;;;;;;24.17;50.02;99464.91;10406390;28;20496;-60
2021/07/27 13:09:14;;;;;;;9.10;6.15;;;;;;;24.27;50.33;99469.94;10403102;28;20046;-60
2021/07/27 13:14:16;;;;;;;7.28;5.60;;;;;;;24.39;50.58;99480.97;10403315;28;20136;-60
2021/07/27 13:19:18;;;;;;;8.27;5.80;;;;;;;24.23;50.17;99485.53;10400512;28;20050;-60
2021/07/27 13:24:23;;;;;;;8.18;6.25;;;;;;;24.12;51.30;99491.34;10406410;28;20129;-60
2021/07/27 13:29:25;;;;;;;6.95;5.63;;;;;;;23.89;51.61;99509.38;10396520;28;20153;-60
2021/07/27 13:34:27;;;;;;;6.25;5.40;;;;;;;23.57;51.32;99512.44;10400688;28;20128;-60
2021/07/27 13:39:28;;;;;;;11.13;6.47;;;;;;;23.35;52.01;99518.66;10403894;28;20140;-60
2021/07/27 13:44:30;;;;;;;11.00;6.40;;;;;;;22.68;52.93;99545.22;10400808;28;20088;-60
2021/07/27 13:49:33;;;;;;;7.30;5.93;;;;;;;22.05;53.69;99554.47;10399178;28;20136;-60
2021/07/27 13:54:37;;;;;;;16.95;6.18;;;;;;;21.34;55.05;99587.25;10401907;28;20128;-59
2021/07/27 13:59:39;;;;;;;13.68;6.53;;;;;;;20.85;56.80;99655.50;10413320;28;20441;-60
2021/07/27 14:04:41;;;;;;;11.27;4.45;;;;;;;20.02;57.36;99664.31;10395487;28;20046;-60
2021/07/27 14:09:42;;;;;;;7.28;4.50;;;;;;;19.92;57.83;99626.44;10404902;28;20133;-60
2021/07/27 14:14:44;;;;;;;10.05;4.20;;;;;;;20.06;57.40;99633.81;10401438;28;20136;-60
2021/07/27 14:19:46;;;;;;;9.48;4.38;;;;;;;20.01;57.61;99629.97;10399802;28;20056;-60
2021/07/27 14:24:48;;;;;;;5.90;3.97;;;;;;;19.99;57.77;99610.72;10400624;28;20489;-60
2021/07/27 14:29:50;;;;;;;7.63;3.92;;;;;;;20.25;57.45;99582.28;10397878;28;20048;-60
2021/07/27 14:34:52;;;;;;;6.43;4.43;;;;;;;20.60;57.37;99574.06;10402331;28;20091;-60
2021/07/27 14:39:53;;;;;;;7.20;4.00;;;;;;;20.91;57.26;99567.13;10404359;28;20085;-60
2021/07/27 14:44:56;;;;;;;8.23;3.95;;;;;;;21.19;57.11;99567.63;10395662;28;20121;-60
2021/07/27 14:49:57;;;;;;;7.95;4.25;;;;;;;21.36;56.43;99568.44;10403379;28;20526;-60
2021/07/27 14:54:59;;;;;;;6.20;4.07;;;;;;;21.23;56.99;99568.94;10405328;28;20133;-60
2021/07/27 15:00:01;;;;;;;6.95;4.38;;;;;;;21.17;58.50;99563.47;10406221;28;20144;-60
2021/07/27 15:05:03;;;;;;;7.07;4.15;;;;;;;21.27;57.20;99553.47;10410419;28;20045;-60
2021/07/27 15:10:09;;;;;;;7.05;3.60;;;;;;;21.46;56.92;99545.97;10410272;28;20085;-60
2021/07/27 15:15:11;;;;;;;7.93;3.90;;;;;;;21.44;56.70;99552.47;10407609;28;20065;-60
2021/07/27 15:20:13;;;;;;;7.28;3.50;;;;;;;21.60;55.80;99560.41;10403308;28;20140;-61
2021/07/27 15:25:15;;;;;;;7.30;3.42;;;;;;;21.79;54.76;99547.53;10409110;28;20458;-60
2021/07/27 15:30:17;;;;;;;5.97;3.58;;;;;;;21.78;55.31;99529.91;10399440;28;20136;-60
2021/07/27 15:35:18;;;;;;;4.47;3.13;;;;;;;21.96;54.12;99529.66;10407660;28;20049;-60
2021/07/27 15:40:20;;;;;;;6.88;3.38;;;;;;;21.94;54.00;99536.16;10410391;28;20064;-60
2021/07/27 15:45:22;;;;;;;6.65;3.58;;;;;;;21.84;54.26;99525.72;10398991;28;20128;-60
2021/07/27 15:50:24;;;;;;;9.02;3.50;;;;;;;21.64;54.51;99496.03;10406147;28;20140;-60
2021/07/27 15:55:25;;;;;;;6.78;3.80;;;;;;;21.13;54.47;99483.16;10404294;28;20073;-60
2021/07/27 16:00:27;;;;;;;4.68;3.30;;;;;;;20.82;56.73;99466.28;10402543;28;20490;-60
2021/07/27 16:05:29;;;;;;;5.18;3.95;;;;;;;20.69;56.88;99453.50;10398245;28;20057;-60
2021/07/27 16:10:31;;;;;;;6.75;4.10;;;;;;;20.58;57.14;99437.91;10406888;28;20107;-60
2021/07/27 16:15:32;;;;;;;7.63;4.10;;;;;;;20.82;57.26;99453.84;10406157;28;20051;-60
2021/07/27 16:20:35;;;;;;;6.03;3.45;;;;;;;21.39;56.81;99462.53;10402913;28;20045;-60
2021/07/27 16:25:37;;;;;;;5.97;3.80;;;;;;;21.65;56.86;99470.25;10404502;28;20132;-60
2021/07/27 16:30:38;;;;;;;5.82;3.80;;;;;;;21.65;56.50;99473.75;10404269;28;20053;-60
2021/07/27 16:35:40;;;;;;;7.55;3.80;;;;;;;21.67;57.02;99484.22;10401513;28;20184;-60
2021/07/27 16:40:42;;;;;;;6.53;3.78;;;;;;;21.80;56.62;99482.63;10402258;28;20417;-60
2021/07/27 16:45:43;;;;;;;6.22;4.05;;;;;;;21.71;55.80;99483.69;10407278;28;20148;-60
2021/07/27 16:50:45;;;;;;;6.38;3.63;;;;;;;21.25;56.46;99473.03;10404011;28;20054;-60
2021/07/27 16:55:47;;;;;;;6.70;4.40;;;;;;;20.91;57.27;99471.41;10400214;28;20387;-60
2021/07/27 17:00:49;;;;;;;5.05;3.88;;;;;;;20.82;57.30;99464.47;10402729;28;20053;-60
2021/07/27 17:05:51;;;;;;;6.43;3.92;;;;;;;20.68;58.20;99466.97;10398636;28;20037;-60
2021/07/27 17:10:52;;;;;;;6.32;4.28;;;;;;;20.52;58.69;99470.41;10401939;28;20141;-60
2021/07/27 17:15:54;;;;;;;6.93;3.80;;;;;;;20.46;59.25;99487.00;10405591;28;20137;-60
2021/07/27 17:20:56;;;;;;;5.95;4.05;;;;;;;20.62;59.97;99491.56;10404216;28;20072;-60
2021/07/27 17:26:00;;;;;;;6.85;4.07;;;;;;;20.60;59.41;99497.00;10370278;28;20042;-60
2021/07/27 17:31:02;;;;;;;9.18;4.63;;;;;;;20.50;59.93;99504.28;10398554;28;20053;-60
2021/07/27 17:36:04;;;;;;;6.38;3.80;;;;;;;20.21;60.38;99514.56;10403523;28;20128;-60
2021/07/27 17:41:05;;;;;;;7.68;4.20;;;;;;;20.15;60.48;99500.06;10400077;28;20140;-60
2021/07/27 17:46:07;;;;;;;5.10;3.53;;;;;;;20.38;60.07;99550.75;10403328;28;20141;-60
2021/07/27 17:51:09;;;;;;;11.57;5.60;;;;;;;19.65;60.87;99485.97;10403066;28;20068;-60
2021/07/27 17:56:11;;;;;;;7.63;4.57;;;;;;;19.43;61.85;99513.91;10396175;28;20042;-60
2021/07/27 18:01:15;;;;;;;6.65;4.45;;;;;;;19.31;62.37;99499.25;10400222;28;20046;-60
2021/07/27 18:06:17;;;;;;;9.40;4.45;;;;;;;19.13;63.10;99508.25;10403639;28;20559;-60
2021/07/27 18:11:19;;;;;;;11.65;5.32;;;;;;;18.88;63.67;99507.22;10400819;28;20140;-60
2021/07/27 18:16:20;;;;;;;9.90;5.22;;;;;;;18.85;63.15;99510.16;10398139;28;20553;-60
2021/07/27 18:21:22;;;;;;;8.70;5.63;;;;;;;18.42;64.51;99510.13;10400140;28;20046;-60
2021/07/27 18:26:24;;;;;;;15.90;7.43;;;;;;;18.26;65.96;99515.28;10401192;28;20136;-60
2021/07/27 18:31:26;;;;;;;11.65;5.68;;;;;;;18.43;66.18;99517.94;10401844;28;20057;-60
2021/07/27 18:36:28;;;;;;;7.25;5.10;;;;;;;18.46;65.66;99507.00;10416484;28;21069;-60
2021/07/27 18:41:30;;;;;;;10.25;4.75;;;;;;;18.57;66.03;99517.38;10397762;28;20531;-60
2021/07/27 18:46:31;;;;;;;8.18;5.70;;;;;;;18.59;65.85;99518.06;10402139;28;20136;-60
2021/07/27 18:51:33;;;;;;;10.18;5.22;;;;;;;18.57;65.24;99514.75;10395842;28;20089;-60
2021/07/27 18:56:35;;;;;;;8.23;4.82;;;;;;;18.52;65.95;99516.19;10384157;28;20052;-60
2021/07/27 19:01:38;;;;;;;11.50;7.10;;;;;;;18.42;66.07;99526.84;10402915;28;20535;-60
2021/07/27 19:06:40;;;;;;;15.73;6.93;;;;;;;18.14;66.94;99516.41;10396305;28;20100;-60
2021/07/27 19:11:41;;;;;;;10.27;5.53;;;;;;;18.08;67.20;99522.31;10398716;28;20128;-60
2021/07/27 19:16:43;;;;;;;8.10;4.93;;;;;;;18.08;66.95;99522.31;10359852;28;20743;-60
2021/07/27 19:21:45;;;;;;;8.45;5.32;;;;;;;18.27;66.96;99543.41;10359146;28;20060;-60
2021/07/27 19:26:47;;;;;;;14.20;5.07;;;;;;;18.35;66.75;99546.97;10365073;28;20129;-60
2021/07/27 19:31:48;;;;;;;18.67;9.00;;;;;;;18.42;66.45;99557.81;10363702;28;20146;-60
2021/07/27 19:36:50;;;;;;;8.65;4.70;;;;;;;18.48;66.53;99555.38;10373045;28;20063;-60
2021/07/27 19:41:56;;;;;;;8.27;5.05;;;;;;;18.48;66.28;99570.44;10383806;28;20114;-60
2021/07/27 19:52:02;;;;;;;10.13;5.30;;;;;;;18.45;66.44;99581.31;10404629;28;20129;-59
2021/07/27 19:57:04;;;;;;;10.60;5.30;;;;;;;18.38;66.40;99575.78;10388644;28;20440;-60
2021/07/27 20:02:06;;;;;;;8.25;5.63;;;;;;;18.29;66.46;99570.56;10404499;28;20055;-60
2021/07/27 20:07:08;;;;;;;6.10;4.05;;;;;;;18.33;66.09;99564.81;10405520;28;20549;-60
2021/07/27 20:12:12;;;;;;;7.35;4.88;;;;;;;18.38;65.92;99567.84;10404009;28;20140;-60
2021/07/27 20:17:13;;;;;;;10.63;4.65;;;;;;;18.31;66.45;99568.59;10401112;28;20676;-60
2021/07/27 20:22:15;;;;;;;8.88;4.55;;;;;;;18.31;66.35;99568.59;10403262;28;20493;-60
2021/07/27 20:27:17;;;;;;;15.38;5.88;;;;;;;18.26;66.47;99568.22;10400886;28;20056;-60
2021/07/27 20:32:20;;;;;;;7.28;5.00;;;;;;;18.23;66.70;99564.06;10404864;28;20137;-60
2021/07/27 20:37:22;;;;;;;8.77;5.10;;;;;;;18.20;66.50;99574.13;10396981;28;20049;-60
2021/07/27 20:42:23;;;;;;;7.32;5.25;;;;;;;18.13;66.43;99568.53;10403125;28;20056;-60
2021/07/27 20:47:27;;;;;;;8.73;5.53;;;;;;;17.93;66.44;99563.50;10397165;28;20081;-59
2021/07/27 20:52:30;;;;;;;10.55;6.70;;;;;;;17.79;66.72;99554.25;10405616;28;20132;-60
2021/07/27 20:57:31;;;;;;;8.90;5.40;;;;;;;17.62;67.15;99555.00;10385341;28;20133;-60
2021/07/27 21:02:34;;;;;;;10.98;6.32;;;;;;;17.72;67.70;99569.03;10405393;28;20145;-60
2021/07/27 21:07:36;;;;;;;11.60;5.57;;;;;;;17.74;67.28;99556.47;10405851;28;20046;-60
2021/07/27 21:12:37;;;;;;;11.07;5.03;;;;;;;17.73;66.80;99545.06;10394724;28;20848;-60
2021/07/27 21:17:39;;;;;;;16.85;6.75;;;;;;;17.71;67.36;99538.25;10365979;28;20045;-60
2021/07/27 21:22:41;;;;;;;8.73;5.43;;;;;;;17.68;67.29;99541.19;10378144;28;20073;-60
2021/07/27 21:27:43;;;;;;;10.77;5.78;;;;;;;17.66;67.00;99536.06;10364687;28;20055;-60
2021/07/27 21:32:44;;;;;;;13.27;5.40;;;;;;;17.63;67.42;99544.28;10394983;28;20053;-60
2021/07/27 21:37:46;;;;;;;19.50;7.03;;;;;;;17.42;68.05;99546.31;10364678;28;20053;-60
2021/07/27 21:42:48;;;;;;;15.18;6.03;;;;;;;17.31;68.57;99549.09;10340871;28;20078;-60
2021/07/27 21:47:50;;;;;;;10.30;6.65;;;;;;;17.41;68.70;99557.84;10339421;28;20041;-60
2021/07/27 21:52:51;;;;;;;12.13;5.85;;;;;;;17.54;68.67;99554.91;10338116;28;20137;-60
2021/07/27 21:57:53;;;;;;;41.25;10.30;;;;;;;17.60;68.41;99557.81;10361674;28;20406;-60
2021/07/27 22:02:55;;;;;;;15.05;6.38;;;;;;;17.47;68.80;99548.50;10363984;28;20045;-60
2021/07/27 22:07:56;;;;;;;17.60;6.40;;;;;;;17.43;68.75;99547.97;10363390;28;20129;-60
2021/07/27 22:12:58;;;;;;;333.10;15.07;;;;;;;17.39;68.91;99546.59;10356876;28;20513;-60
2021/07/27 22:18:00;;;;;;;349.77;17.67;;;;;;;17.34;68.69;99545.38;10389942;28;20482;-60
2021/07/27 22:23:01;;;;;;;48.20;9.35;;;;;;;17.25;68.67;99548.81;10350527;28;20050;-60
2021/07/27 22:28:03;;;;;;;341.95;17.92;;;;;;;17.18;68.46;99548.56;10334628;28;20053;-60
2021/07/27 22:33:05;;;;;;;690.10;25.15;;;;;;;17.03;68.79;99563.19;10362927;28;20141;-60
2021/07/27 22:38:07;;;;;;;1087.65;30.85;;;;;;;16.79;68.62;99565.44;10361903;28;20119;-60
2021/07/27 22:43:11;;;;;;;113.85;8.43;;;;;;;16.57;69.43;99571.81;10361468;28;20073;-60
2021/07/27 22:48:12;;;;;;;387.00;13.27;;;;;;;16.61;69.43;99572.41;10362301;28;20108;-60
2021/07/27 22:53:14;;;;;;;366.65;17.52;;;;;;;16.62;69.59;99566.13;10375529;28;20138;-60
2021/07/27 22:58:16;;;;;;;476.73;16.45;;;;;;;16.63;69.26;99559.91;10334417;28;20101;-60
2021/07/27 23:03:17;;;;;;;105.60;9.73;;;;;;;16.58;69.71;99560.31;10359687;28;20053;-60
2021/07/27 23:08:19;;;;;;;65.68;8.15;;;;;;;16.72;69.29;99551.13;10362395;28;20518;-60
2021/07/27 23:13:21;;;;;;;213.82;10.20;;;;;;;16.78;69.25;99547.91;10367501;28;20129;-60
2021/07/27 23:18:23;;;;;;;510.20;16.42;;;;;;;16.82;69.29;99549.31;10369464;28;20089;-60
2021/07/27 23:23:25;;;;;;;394.42;14.82;;;;;;;16.85;69.45;99536.66;10371968;28;20050;-60
2021/07/27 23:28:27;;;;;;;938.92;25.25;;;;;;;16.69;69.14;99541.66;10366139;28;20060;-60
2021/07/27 23:33:29;;;;;;;581.90;18.63;;;;;;;16.56;69.71;99527.94;10368403;28;20133;-60
2021/07/27 23:38:33;;;;;;;412.58;13.05;;;;;;;16.68;69.34;99526.81;10367441;28;20133;-60
2021/07/27 23:43:37;;;;;;;561.50;16.65;;;;;;;16.61;69.41;99522.22;10367602;28;20499;-60
2021/07/27 23:48:40;;;;;;;331.73;12.02;;;;;;;16.56;69.96;99530.56;10367406;28;20414;-60
2021/07/27 23:53:41;;;;;;;364.48;12.90;;;;;;;16.58;69.57;99528.63;10367077;28;20056;-60
2021/07/27 23:58:43;;;;;;;240.20;9.07;;;;;;;16.65;69.56;99526.25;10349187;28;20550;-60
